createdAt,value
2023-11-01T00:02:26.148Z,95765.34
2023-11-01T00:05:23.088Z,95754.97
2023-11-01T00:08:20.050Z,95768.97
2023-11-01T00:11:17.338Z,95760.00
2023-11-01T00:14:14.273Z,95775.13
2023-11-01T00:17:12.244Z,95771.00
2023-11-01T00:20:10.230Z,95765.50
2023-11-01T00:23:07.211Z,95761.91
2023-11-01T00:26:04.588Z,95768.19
2023-11-01T00:29:01.546Z,95765.22
2023-11-01T00:31:58.464Z,95761.09
2023-11-01T00:34:55.612Z,95780.31
2023-11-01T00:37:52.487Z,95775.88
2023-11-01T00:40:49.431Z,95784.72
2023-11-01T00:43:46.301Z,95777.66
2023-11-01T00:46:43.459Z,95779.53
2023-11-01T00:49:40.316Z,95776.84
2023-11-01T00:52:37.178Z,95783.13
2023-11-01T00:55:34.109Z,95779.69
2023-11-01T00:58:31.032Z,95784.56
2023-11-01T01:01:27.941Z,95778.09
2023-11-01T01:04:24.820Z,95778.25
2023-11-01T01:07:21.770Z,95779.53
2023-11-01T01:10:18.628Z,95771.03
2023-11-01T01:13:16.050Z,95777.94
2023-11-01T01:16:12.983Z,95766.94
2023-11-01T01:19:09.856Z,95766.63
2023-11-01T01:22:06.890Z,95763.63
2023-11-01T01:25:04.313Z,95767.88
2023-11-01T01:28:01.181Z,95764.41
2023-11-01T01:30:58.322Z,95756.72
2023-11-01T01:33:55.183Z,95764.94
2023-11-01T01:36:52.156Z,95757.63
2023-11-01T01:39:49.040Z,95762.97
2023-11-01T01:42:45.947Z,95768.47
2023-11-01T01:45:43.033Z,95766.75
2023-11-01T01:48:41.826Z,95767.06
2023-11-01T01:51:39.278Z,95770.41
2023-11-01T01:54:36.342Z,95756.19
2023-11-01T01:57:33.578Z,95756.00
2023-11-01T02:00:31.592Z,95753.38
2023-11-01T02:03:28.739Z,95755.56
2023-11-01T02:06:25.928Z,95760.16
2023-11-01T02:09:23.184Z,95764.72
2023-11-01T02:12:25.525Z,95769.44
2023-11-01T02:15:22.421Z,95765.38
2023-11-01T02:18:19.414Z,95761.41
2023-11-01T02:21:16.480Z,95761.09
2023-11-01T02:24:13.337Z,95752.63
2023-11-01T02:27:10.209Z,95760.97
2023-11-01T02:30:07.926Z,95753.41
2023-11-01T02:33:05.602Z,95738.59
2023-11-01T02:36:03.537Z,95739.09
2023-11-01T02:39:00.407Z,95740.66
2023-11-01T02:41:57.364Z,95727.00
2023-11-01T02:44:54.245Z,95728.06
2023-11-01T02:47:51.195Z,95729.31
2023-11-01T02:50:48.404Z,95737.34
2023-11-01T02:53:45.363Z,95743.94
2023-11-01T02:56:42.895Z,95736.97
2023-11-01T02:59:39.822Z,95731.59
2023-11-01T03:02:37.709Z,95734.41
2023-11-01T03:05:34.830Z,95736.66
2023-11-01T03:08:31.813Z,95736.88
2023-11-01T03:11:28.766Z,95727.53
2023-11-01T03:14:25.795Z,95726.13
2023-11-01T03:17:22.783Z,95729.31
2023-11-01T03:20:19.698Z,95723.59
2023-11-01T03:23:16.621Z,95720.03
2023-11-01T03:26:13.505Z,95723.63
2023-11-01T03:29:10.384Z,95715.63
2023-11-01T03:32:09.584Z,95715.47
2023-11-01T03:35:07.216Z,95707.09
2023-11-01T03:38:04.124Z,95721.31
2023-11-01T03:41:04.652Z,95718.34
2023-11-01T03:44:01.673Z,95721.31
2023-11-01T03:46:58.938Z,95725.13
2023-11-01T03:49:55.811Z,95720.84
2023-11-01T03:52:52.691Z,95721.44
2023-11-01T03:55:49.570Z,95716.16
2023-11-01T03:58:46.509Z,95726.53
2023-11-01T04:01:43.418Z,95730.78
2023-11-01T04:04:40.469Z,95717.56
2023-11-01T04:07:37.346Z,95714.53
2023-11-01T04:10:34.575Z,95713.78
2023-11-01T04:13:32.468Z,95716.50
2023-11-01T04:16:30.121Z,95715.84
2023-11-01T04:19:27.059Z,95712.50
2023-11-01T04:22:24.001Z,95711.88
2023-11-01T04:25:21.057Z,95706.22
2023-11-01T04:28:18.010Z,95705.44
2023-11-01T04:31:16.865Z,95704.19
2023-11-01T04:34:13.925Z,95698.38
2023-11-01T04:37:10.811Z,95692.25
2023-11-01T04:40:12.718Z,95688.94
2023-11-01T04:43:09.591Z,95701.34
2023-11-01T04:46:06.829Z,95693.06
2023-11-01T04:49:05.411Z,95692.38
2023-11-01T04:52:02.750Z,95691.94
2023-11-01T04:54:59.620Z,95688.13
2023-11-01T04:57:56.477Z,95683.59
2023-11-01T05:00:53.357Z,95676.09
2023-11-01T05:03:50.340Z,95675.88
2023-11-01T05:06:47.220Z,95679.22
2023-11-01T05:09:44.458Z,95679.31
2023-11-01T05:12:41.349Z,95684.22
2023-11-01T05:15:38.304Z,95683.00
2023-11-01T05:18:35.205Z,95679.84
2023-11-01T05:21:32.103Z,95673.06
2023-11-01T05:24:29.046Z,95675.31
2023-11-01T05:27:26.040Z,95677.19
2023-11-01T05:30:22.961Z,95680.34
2023-11-01T05:33:22.690Z,95676.44
2023-11-01T05:36:20.504Z,95670.84
2023-11-01T05:39:19.334Z,95667.00
2023-11-01T05:42:16.186Z,95673.41
2023-11-01T05:45:18.668Z,95665.72
2023-11-01T05:48:16.100Z,95661.66
2023-11-01T05:51:13.043Z,95672.16
2023-11-01T05:54:10.035Z,95669.75
2023-11-01T05:57:07.017Z,95667.75
2023-11-01T06:00:10.044Z,95670.31
2023-11-01T06:03:08.310Z,95668.09
2023-11-01T06:06:05.972Z,95674.22
2023-11-01T06:09:02.978Z,95678.47
2023-11-01T06:12:00.640Z,95681.94
2023-11-01T06:14:57.612Z,95674.16
2023-11-01T06:17:54.585Z,95678.53
2023-11-01T06:20:51.617Z,95674.19
2023-11-01T06:23:48.567Z,95681.78
2023-11-01T06:26:45.656Z,95685.81
2023-11-01T06:29:45.152Z,95690.06
2023-11-01T06:32:42.205Z,95676.88
2023-11-01T06:35:40.143Z,95667.91
2023-11-01T06:38:37.432Z,95674.00
2023-11-01T06:41:34.454Z,95679.09
2023-11-01T06:44:34.082Z,95674.75
2023-11-01T06:47:31.081Z,95667.59
2023-11-01T06:50:28.081Z,95672.13
2023-11-01T06:53:25.098Z,95673.25
2023-11-01T06:56:23.324Z,95676.41
2023-11-01T06:59:20.503Z,95674.97
2023-11-01T07:02:17.587Z,95670.72
2023-11-01T07:05:20.453Z,95676.84
2023-11-01T07:08:18.326Z,95677.75
2023-11-01T07:11:15.219Z,95673.06
2023-11-01T07:14:12.100Z,95672.06
2023-11-01T07:17:08.947Z,95670.03
2023-11-01T07:20:06.874Z,95665.47
2023-11-01T07:23:03.871Z,95670.25
2023-11-01T07:26:00.777Z,95665.47
2023-11-01T07:28:57.764Z,95667.38
2023-11-01T07:31:54.891Z,95671.16
2023-11-01T07:34:51.870Z,95658.22
2023-11-01T07:37:48.837Z,95660.41
2023-11-01T07:40:45.722Z,95656.81
2023-11-01T07:43:43.673Z,95654.56
2023-11-01T07:46:40.594Z,95659.66
2023-11-01T07:49:37.503Z,95652.16
2023-11-01T07:52:34.375Z,95651.63
2023-11-01T07:55:31.771Z,95648.94
2023-11-01T07:58:29.032Z,95649.25
2023-11-01T08:01:26.197Z,95653.19
2023-11-01T08:04:23.275Z,95645.94
2023-11-01T08:07:20.279Z,95644.03
2023-11-01T08:10:17.608Z,95648.47
2023-11-01T08:13:16.373Z,95650.69
2023-11-01T08:16:13.976Z,95653.34
2023-11-01T08:19:11.091Z,95651.41
2023-11-01T08:22:12.071Z,95650.31
2023-11-01T08:25:09.891Z,95653.34
2023-11-01T08:28:06.964Z,95637.88
2023-11-01T08:31:04.032Z,95634.75
2023-11-01T08:34:01.086Z,95634.16
2023-11-01T08:36:58.172Z,95629.47
2023-11-01T08:39:55.027Z,95627.97
2023-11-01T08:42:53.189Z,95629.84
2023-11-01T08:45:50.074Z,95613.59
2023-11-01T08:48:47.107Z,95622.19
2023-11-01T08:51:44.121Z,95622.84
2023-11-01T08:54:41.936Z,95620.03
2023-11-01T08:57:39.378Z,95633.53
2023-11-01T09:00:42.770Z,95629.97
2023-11-01T09:03:44.995Z,95629.94
2023-11-01T09:06:42.005Z,95630.53
2023-11-01T09:09:39.374Z,95626.56
2023-11-01T09:12:36.428Z,95622.53
2023-11-01T09:15:33.362Z,95626.88
2023-11-01T09:18:30.362Z,95626.94
2023-11-01T09:21:27.372Z,95634.19
2023-11-01T09:24:24.251Z,95640.19
2023-11-01T09:27:21.196Z,95640.44
2023-11-01T09:30:18.414Z,95646.84
2023-11-01T09:33:15.445Z,95646.13
2023-11-01T09:36:14.402Z,95643.34
2023-11-01T09:39:12.746Z,95640.50
2023-11-01T09:42:21.306Z,95633.53
2023-11-01T09:45:19.808Z,95640.34
2023-11-01T09:48:17.954Z,95635.66
2023-11-01T09:51:17.748Z,95631.66
2023-11-01T09:54:15.040Z,95633.00
2023-11-01T09:57:13.904Z,95636.09
2023-11-01T10:00:12.420Z,95630.34
2023-11-01T10:03:09.504Z,95628.88
2023-11-01T10:06:08.917Z,95621.41
2023-11-01T10:09:07.333Z,95624.13
2023-11-01T10:12:08.963Z,95622.50
2023-11-01T10:15:20.335Z,95624.69
2023-11-01T10:18:17.369Z,95612.72
2023-11-01T10:21:14.334Z,95610.66
2023-11-01T10:24:11.221Z,95610.47
2023-11-01T10:27:08.340Z,95602.78
2023-11-01T10:30:06.234Z,95605.25
2023-11-01T10:33:03.430Z,95603.50
2023-11-01T10:36:02.501Z,95595.44
2023-11-01T10:38:59.864Z,95591.75
2023-11-01T10:41:57.329Z,95590.00
2023-11-01T10:44:54.936Z,95587.69
2023-11-01T10:47:55.601Z,95581.47
2023-11-01T10:50:54.113Z,95576.44
2023-11-01T10:53:51.956Z,95577.00
2023-11-01T10:56:49.529Z,95575.59
2023-11-01T11:00:09.948Z,95563.06
2023-11-01T11:03:37.651Z,95569.31
2023-11-01T11:06:46.704Z,95561.06
2023-11-01T11:09:43.599Z,95548.75
2023-11-01T11:12:40.504Z,95551.53
2023-11-01T11:15:52.839Z,95542.16
2023-11-01T11:18:49.801Z,95552.53
2023-11-01T11:21:46.897Z,95552.31
2023-11-01T11:24:47.931Z,95548.66
2023-11-01T11:27:50.530Z,95551.78
2023-11-01T11:31:25.132Z,95550.19
2023-11-01T11:34:22.154Z,95532.44
2023-11-01T11:37:30.056Z,95547.19
2023-11-01T11:40:29.553Z,95542.41
2023-11-01T11:44:15.595Z,95544.94
2023-11-01T11:47:31.024Z,95543.72
2023-11-01T11:50:29.087Z,95548.44
2023-11-01T11:53:26.008Z,95534.09
2023-11-01T11:56:23.313Z,95525.81
2023-11-01T11:59:23.188Z,95526.25
2023-11-01T12:02:20.060Z,95525.16
2023-11-01T12:05:17.122Z,95528.72
2023-11-01T12:08:14.003Z,95514.22
2023-11-01T12:11:10.911Z,95513.72
2023-11-01T12:14:07.846Z,95513.75
2023-11-01T12:17:05.005Z,95514.38
2023-11-01T12:20:03.349Z,95507.38
2023-11-01T12:23:06.972Z,95505.88
2023-11-01T12:26:10.171Z,95503.66
2023-11-01T12:29:11.458Z,95496.06
2023-11-01T12:32:18.330Z,95490.13
2023-11-01T12:35:15.275Z,95489.97
2023-11-01T12:38:18.702Z,95489.78
2023-11-01T12:41:15.599Z,95476.81
2023-11-01T12:44:12.673Z,95482.06
2023-11-01T12:47:09.586Z,95478.88
2023-11-01T12:50:07.526Z,95475.84
2023-11-01T12:53:04.414Z,95468.94
2023-11-01T12:56:01.260Z,95467.03
2023-11-01T12:58:58.132Z,95466.09
2023-11-01T13:01:55.333Z,95460.00
2023-11-01T13:04:52.243Z,95444.50
2023-11-01T13:07:50.230Z,95441.00
2023-11-01T13:10:47.116Z,95439.03
2023-11-01T13:13:43.975Z,95442.78
2023-11-01T13:16:43.343Z,95428.97
2023-11-01T13:19:42.245Z,95427.72
2023-11-01T13:22:39.196Z,95423.38
2023-11-01T13:25:36.801Z,95416.91
2023-11-01T13:28:34.140Z,95424.38
2023-11-01T13:31:31.098Z,95403.28
2023-11-01T13:34:28.103Z,95404.69
2023-11-01T13:37:25.034Z,95393.53
2023-11-01T13:40:21.940Z,95393.47
2023-11-01T13:43:18.944Z,95388.66
2023-11-01T13:46:16.416Z,95389.59
2023-11-01T13:49:13.781Z,95380.63
2023-11-01T13:52:12.610Z,95371.81
2023-11-01T13:55:10.693Z,95370.47
2023-11-01T13:58:07.671Z,95365.59
2023-11-01T14:01:05.145Z,95361.34
2023-11-01T14:04:02.239Z,95357.47
2023-11-01T14:06:59.272Z,95372.75
2023-11-01T14:09:56.219Z,95362.19
2023-11-01T14:12:53.414Z,95360.88
2023-11-01T14:15:51.938Z,95365.91
2023-11-01T14:18:49.782Z,95353.94
2023-11-01T14:21:46.733Z,95352.09
2023-11-01T14:24:46.275Z,95348.25
2023-11-01T14:27:43.492Z,95352.63
2023-11-01T14:30:40.837Z,95345.28
2023-11-01T14:33:38.319Z,95348.50
2023-11-01T14:36:35.321Z,95348.88
2023-11-01T14:39:32.218Z,95346.88
2023-11-01T14:42:29.146Z,95342.44
2023-11-01T14:45:27.456Z,95345.13
2023-11-01T14:48:24.456Z,95336.81
2023-11-01T14:51:21.586Z,95334.22
2023-11-01T14:54:20.116Z,95342.31
2023-11-01T14:57:17.045Z,95344.16
2023-11-01T15:00:16.024Z,95345.69
2023-11-01T15:03:13.622Z,95344.63
2023-11-01T15:06:12.256Z,95333.34
2023-11-01T15:09:09.357Z,95329.88
2023-11-01T15:12:06.839Z,95319.78
2023-11-01T15:15:04.902Z,95307.84
2023-11-01T15:18:01.918Z,95314.66
2023-11-01T15:20:58.846Z,95311.31
2023-11-01T15:23:55.755Z,95306.50
2023-11-01T15:26:54.344Z,95310.94
2023-11-01T15:29:53.034Z,95300.34
2023-11-01T15:32:50.387Z,95294.47
2023-11-01T15:35:47.303Z,95297.16
2023-11-01T15:38:44.174Z,95298.94
2023-11-01T15:41:41.345Z,95296.72
2023-11-01T15:44:38.540Z,95293.53
2023-11-01T15:47:35.531Z,95284.97
2023-11-01T15:50:37.015Z,95285.06
2023-11-01T15:53:35.311Z,95274.03
2023-11-01T15:56:32.325Z,95275.59
2023-11-01T15:59:29.184Z,95277.97
2023-11-01T16:02:26.045Z,95279.84
2023-11-01T16:05:23.017Z,95286.88
2023-11-01T16:08:20.105Z,95281.63
2023-11-01T16:11:17.179Z,95272.88
2023-11-01T16:14:15.986Z,95282.41
2023-11-01T16:17:12.970Z,95285.56
2023-11-01T16:20:10.330Z,95283.03
2023-11-01T16:23:08.743Z,95281.69
2023-11-01T16:26:05.874Z,95286.13
2023-11-01T16:29:02.909Z,95293.56
2023-11-01T16:31:59.861Z,95288.25
2023-11-01T16:34:56.803Z,95294.03
2023-11-01T16:37:53.851Z,95281.50
2023-11-01T16:40:50.753Z,95298.31
2023-11-01T16:43:47.653Z,95296.97
2023-11-01T16:46:44.604Z,95298.69
2023-11-01T16:49:44.029Z,95303.88
2023-11-01T16:52:41.009Z,95308.63
2023-11-01T16:55:38.747Z,95310.47
2023-11-01T16:58:36.974Z,95309.03
2023-11-01T17:01:34.067Z,95307.97
2023-11-01T17:04:31.455Z,95305.81
2023-11-01T17:07:29.069Z,95305.47
2023-11-01T17:10:26.032Z,95283.63
2023-11-01T17:13:24.744Z,95296.31
2023-11-01T17:16:21.870Z,95303.72
2023-11-01T17:19:18.839Z,95290.53
2023-11-01T17:22:48.430Z,95300.31
2023-11-01T17:25:45.328Z,95288.50
2023-11-01T17:28:42.254Z,95292.28
2023-11-01T17:31:48.125Z,95282.97
2023-11-01T17:34:45.064Z,95284.94
2023-11-01T17:37:50.145Z,95277.34
2023-11-01T17:40:57.439Z,95282.78
2023-11-01T17:43:54.899Z,95293.16
2023-11-01T17:47:04.067Z,95276.81
2023-11-01T17:50:05.822Z,95282.78
2023-11-01T17:53:02.903Z,95276.66
2023-11-01T17:55:59.779Z,95277.38
2023-11-01T17:58:58.965Z,95270.47
2023-11-01T18:01:56.428Z,95277.63
2023-11-01T18:04:54.680Z,95268.75
2023-11-01T18:07:55.958Z,95266.16
2023-11-01T18:10:57.009Z,95266.63
2023-11-01T18:13:53.937Z,95264.69
2023-11-01T18:16:50.796Z,95258.47
2023-11-01T18:19:47.708Z,95262.03
2023-11-01T18:22:44.695Z,95250.09
2023-11-01T18:26:14.011Z,95260.66
2023-11-01T18:29:11.874Z,95254.03
2023-11-01T18:32:13.054Z,95248.78
2023-11-01T18:35:09.956Z,95242.88
2023-11-01T18:38:17.089Z,95231.06
2023-11-01T18:41:14.060Z,95235.75
2023-11-01T18:44:24.821Z,95235.06
2023-11-01T18:47:25.539Z,95237.06
2023-11-01T18:50:22.348Z,95213.56
2023-11-01T18:53:31.573Z,95213.91
2023-11-01T18:56:38.002Z,95164.16
2023-11-01T18:59:35.292Z,95181.78
2023-11-01T19:02:37.840Z,95182.97
2023-11-01T19:05:35.195Z,95194.19
2023-11-01T19:08:42.121Z,95191.25
2023-11-01T19:11:39.044Z,95186.78
2023-11-01T19:14:40.016Z,95196.72
2023-11-01T19:17:37.948Z,95193.38
2023-11-01T19:20:35.675Z,95185.59
2023-11-01T19:23:33.284Z,95192.72
2023-11-01T19:26:30.595Z,95186.91
2023-11-01T19:29:27.538Z,95193.25
2023-11-01T19:32:24.382Z,95195.38
2023-11-01T19:35:21.455Z,95193.06
2023-11-01T19:38:23.156Z,95196.28
2023-11-01T19:41:21.308Z,95200.75
2023-11-01T19:44:18.990Z,95199.63
2023-11-01T19:47:15.849Z,95206.66
2023-11-01T19:50:21.749Z,95209.31
2023-11-01T19:53:18.781Z,95185.34
2023-11-01T19:56:15.718Z,95192.28
2023-11-01T19:59:12.616Z,95186.78
2023-11-01T20:02:10.021Z,95190.59
2023-11-01T20:05:11.348Z,95193.81
2023-11-01T20:08:08.239Z,95187.25
2023-11-01T20:11:05.419Z,95186.25
2023-11-01T20:14:02.357Z,95177.66
2023-11-01T20:16:59.425Z,95176.78
2023-11-01T20:19:56.344Z,95179.56
2023-11-01T20:22:54.615Z,95181.09
2023-11-01T20:25:51.639Z,95170.66
2023-11-01T20:28:48.527Z,95164.63
2023-11-01T20:31:45.848Z,95149.81
2023-11-01T20:34:48.657Z,95150.91
2023-11-01T20:37:45.533Z,95149.25
2023-11-01T20:40:42.456Z,95137.50
2023-11-01T20:43:39.366Z,95135.97
2023-11-01T20:46:36.217Z,95120.47
2023-11-01T20:49:33.133Z,95113.13
2023-11-01T20:52:30.023Z,95132.84
2023-11-01T20:55:26.884Z,95125.28
2023-11-01T20:58:28.543Z,95132.41
2023-11-01T21:01:25.461Z,95137.31
2023-11-01T21:04:22.455Z,95128.06
2023-11-01T21:07:21.135Z,95136.28
2023-11-01T21:10:20.793Z,95134.81
2023-11-01T21:13:17.672Z,95124.44
2023-11-01T21:16:14.661Z,95132.34
2023-11-01T21:19:11.571Z,95125.78
2023-11-01T21:22:08.600Z,95126.69
2023-11-01T21:25:06.679Z,95120.03
2023-11-01T21:28:03.987Z,95118.56
2023-11-01T21:31:10.956Z,95119.50
2023-11-01T21:34:08.078Z,95114.78
2023-11-01T21:37:05.264Z,95121.34
2023-11-01T21:40:02.808Z,95109.72
2023-11-01T21:42:59.686Z,95097.25
2023-11-01T21:45:56.580Z,95108.97
2023-11-01T21:48:54.630Z,95105.06
2023-11-01T21:51:51.697Z,95111.09
2023-11-01T21:54:50.796Z,95114.22
2023-11-01T21:57:47.753Z,95108.66
2023-11-01T22:00:52.110Z,95102.41
2023-11-01T22:03:51.464Z,95089.41
2023-11-01T22:06:48.612Z,95089.72
2023-11-01T22:09:49.762Z,95090.28
2023-11-01T22:12:50.165Z,95080.69
2023-11-01T22:15:48.028Z,95087.16
2023-11-01T22:18:45.594Z,95081.13
2023-11-01T22:21:42.503Z,95085.16
2023-11-01T22:24:42.523Z,95083.94
2023-11-01T22:27:46.442Z,95079.34
2023-11-01T22:30:43.310Z,95076.34
2023-11-01T22:33:41.340Z,95075.66
2023-11-01T22:36:47.108Z,95074.47
2023-11-01T22:39:45.594Z,95068.78
2023-11-01T22:42:42.486Z,95081.38
2023-11-01T22:45:40.677Z,95078.91
2023-11-01T22:48:39.985Z,95070.56
2023-11-01T22:51:36.929Z,95060.88
2023-11-01T22:54:34.022Z,95061.31
2023-11-01T22:57:31.505Z,95064.53
2023-11-01T23:00:35.521Z,95060.53
2023-11-01T23:03:32.951Z,95056.31
2023-11-01T23:06:30.067Z,95053.63
2023-11-01T23:09:27.064Z,95059.75
2023-11-01T23:12:24.007Z,95060.31
2023-11-01T23:15:20.998Z,95051.94
2023-11-01T23:18:18.441Z,95047.25
2023-11-01T23:21:15.439Z,95042.38
2023-11-01T23:24:14.570Z,95043.38
2023-11-01T23:27:12.598Z,95045.81
2023-11-01T23:30:30.325Z,95038.59
2023-11-01T23:33:42.884Z,95029.00
2023-11-01T23:36:41.314Z,95019.13
2023-11-01T23:39:39.378Z,95014.44
2023-11-01T23:42:36.487Z,95008.44
2023-11-01T23:45:39.247Z,95015.19
2023-11-01T23:48:36.263Z,95013.31
2023-11-01T23:51:38.806Z,95022.19
2023-11-01T23:54:35.783Z,95011.00
2023-11-01T23:57:34.123Z,95009.50
